5MA2 weather

Fuller House Heliport
East Falmouth, Massachusetts, United States

Public forecast

Using degrees Fahrenheit for public forecast. Weather courtesy of forecast.io.

Closest aviation weather report (METAR) to Fuller House Heliport

Closest report is Cape Cod Coast Guard Air Station, 6.5 nm (12.0 km) NNE. Retrieved 2020/04/09 15:45 UTC (19 minutes ago):

KFMH 091545Z 15015G25KT 10SM BKN006 OVC047 08/07 A2938 RMK PRESFR

Closest aviation forecast (TAF) to Fuller House Heliport

Closest forecast is Cape Cod Coast Guard Air Station, 6.5 nm (12.0 km) NNE. Retrieved 2020/04/09 12:24 UTC (4 hours ago):

TAF KFMH 091122Z 0912/1012 18008KT P6SM BKN250 FM091500 16014G25KT P6SM VCSH OVC060 FM091800 16019G32KT 3SM +SHRA BR OVC010 FM092100 20018G41KT 1SM -SHRA BR OVC003 FM092300 25017G42KT 5SM BR VCSH BKN045 FM100100 27016G36KT P6SM FEW250 FM100400 26015G26KT P6SM FEW250